.
WxDataArchive / Data Records for 2007-03-19
2007-03-18 March 2007 2007-03-20

Data Records for Monday, 19 March 2007

Time	Temp	Chill	HIndex	Humid	Dewpt	 Wind 	HiWind	WindDir	Rain 	Barom 
-----	----	-----	------	-----	-----	------	------	-------	-----	----- 
00:00	34.3	34.3	34.3	54	19.4	0	2	90	0.00	30.164 
00:05	34.6	34.6	34.6	53	19.2	1	3	90	0.00	30.161 
00:10	34.7	34.7	34.7	52	18.9	1	3	90	0.00	30.156 
00:15	34.9	34.9	34.9	52	19.1	1	2	112	0.00	30.155 
00:20	35.0	35.0	35.0	52	19.2	1	5	112	0.00	30.148 
00:25	35.2	35.2	35.2	52	19.4	2	4	112	0.00	30.145 
00:30	35.3	35.3	35.3	51	19.0	2	6	112	0.00	30.141 
00:35	35.5	35.5	35.5	51	19.2	1	3	112	0.00	30.139 
00:40	35.5	35.5	35.5	50	18.7	2	6	90	0.00	30.134 
00:45	35.6	35.6	35.6	50	18.8	1	4	135	0.00	30.132 
00:50	35.6	35.6	35.6	50	18.8	2	4	112	0.00	30.129 
00:55	35.6	35.6	35.6	50	18.8	2	5	112	0.00	30.126 
01:00	35.8	35.8	35.8	50	19.0	2	7	90	0.00	30.117 
01:05	35.8	35.8	35.8	49	18.5	2	5	112	0.00	30.112 
01:10	35.9	35.9	35.9	48	18.1	2	7	90	0.00	30.106 
01:15	36.0	36.0	36.0	48	18.2	2	10	90	0.00	30.108 
01:20	36.2	36.2	36.2	47	17.9	2	6	90	0.00	30.109 
01:25	36.2	36.2	36.2	46	17.4	2	5	90	0.00	30.103 
01:30	36.3	36.3	36.3	46	17.5	3	12	90	0.00	30.099 
01:35	36.5	36.5	36.5	46	17.7	2	7	112	0.00	30.098 
01:40	36.5	36.5	36.5	46	17.7	1	5	112	0.00	30.099 
01:45	36.5	36.5	36.5	46	17.7	1	6	338	0.00	30.100 
01:50	36.5	36.5	36.5	46	17.7	2	5	112	0.00	30.098 
01:55	36.5	36.5	36.5	46	17.7	2	6	90	0.00	30.094 
02:00	36.5	36.5	36.5	47	18.2	1	5	90	0.00	30.095 
02:05	36.3	36.3	36.3	46	17.5	2	5	112	0.00	30.091 
02:10	36.5	36.5	36.5	46	17.7	2	5	112	0.00	30.086 
02:15	36.3	36.3	36.3	46	17.5	2	5	112	0.00	30.083 
02:20	36.3	36.3	36.3	46	17.5	2	6	90	0.00	30.081 
02:25	36.3	36.3	36.3	47	18.0	2	5	90	0.00	30.077 
02:30	36.5	36.5	36.5	46	17.7	2	9	90	0.00	30.072 
02:35	36.5	36.5	36.5	46	17.7	2	4	90	0.00	30.064 
02:40	36.5	36.5	36.5	46	17.7	2	7	68	0.00	30.062 
02:45	36.6	36.6	36.6	46	17.8	2	9	90	0.00	30.060 
02:50	36.5	36.5	36.5	46	17.7	2	4	90	0.00	30.054 
02:55	36.6	36.6	36.6	45	17.3	2	5	90	0.00	30.048 
03:00	36.6	36.6	36.6	45	17.3	2	7	68	0.00	30.046 
03:05	36.6	36.6	36.6	45	17.3	2	9	90	0.00	30.042 
03:10	36.6	36.6	36.6	46	17.8	2	5	90	0.00	30.043 
03:15	36.8	36.8	36.8	44	17.0	2	10	90	0.00	30.033 
03:20	36.9	36.9	36.9	44	17.0	3	7	90	0.00	30.029 
03:25	37.0	37.0	37.0	43	16.6	3	10	90	0.00	30.018 
03:30	37.0	33.9	37.0	43	16.6	4	9	90	0.00	30.012 
03:35	37.0	37.0	37.0	43	16.6	2	9	90	0.00	30.013 
03:40	37.0	37.0	37.0	44	17.1	2	6	90	0.00	30.012 
03:45	37.2	37.2	37.2	43	16.8	2	4	90	0.00	30.000 
03:50	37.2	37.2	37.2	43	16.8	3	8	90	0.00	29.998 
03:55	37.2	37.2	37.2	43	16.8	3	9	90	0.00	29.986 
04:00	37.2	37.2	37.2	43	16.8	3	6	112	0.00	29.983 
04:05	37.2	37.2	37.2	43	16.8	3	10	112	0.00	29.979 
04:10	37.2	37.2	37.2	43	16.8	3	6	90	0.00	29.977 
04:15	37.2	34.1	37.2	43	16.8	4	11	90	0.00	29.970 
04:20	37.2	34.1	37.2	43	16.8	4	8	90	0.00	29.968 
04:25	37.2	37.2	37.2	43	16.8	3	9	90	0.00	29.962 
04:30	37.2	33.2	37.2	43	16.8	5	12	90	0.00	29.943 
04:35	37.2	34.1	37.2	43	16.8	4	16	90	0.00	29.941 
04:40	37.0	33.9	37.0	44	17.1	4	14	90	0.00	29.938 
04:45	37.0	33.9	37.0	44	17.1	4	10	112	0.00	29.938 
04:50	37.0	32.9	37.0	44	17.1	5	12	90	0.00	29.940 
04:55	37.0	37.0	37.0	44	17.1	3	9	90	0.00	29.945 
05:00	37.0	37.0	37.0	44	17.1	3	9	90	0.00	29.946 
05:05	37.0	37.0	37.0	45	17.7	3	13	90	0.00	29.950 
05:10	37.0	37.0	37.0	46	18.2	2	6	90	0.00	29.954 
05:15	36.9	36.9	36.9	46	18.1	1	4	90	0.00	29.953 
05:20	36.9	36.9	36.9	47	18.6	1	4	90	0.00	29.954 
05:25	36.9	36.9	36.9	46	18.1	2	5	270	0.00	29.960 
05:30	37.0	37.0	37.0	47	18.7	1	4	68	0.00	29.954 
05:35	37.0	37.0	37.0	46	18.2	2	7	248	0.00	29.971 
05:40	37.3	37.3	37.3	45	17.9	2	5	248	0.00	29.975 
05:45	37.3	37.3	37.3	46	18.4	1	3	248	0.00	29.971 
05:50	37.3	37.3	37.3	51	20.9	0	2	0	0.00	29.984 
05:55	37.2	37.2	37.2	52	21.2	0	2	0	0.00	29.978 
06:00	36.9	36.9	36.9	56	22.7	0	1	0	0.00	29.970 
06:05	36.5	36.5	36.5	62	24.7	0	1	0	0.00	29.988 
06:10	35.9	35.9	35.9	67	26.0	0	0	---	0.01	29.993 
06:15	35.5	35.5	35.5	68	26.0	0	2	0	0.00	29.973 
06:20	35.2	35.2	35.2	71	26.8	0	2	0	0.00	29.972 
06:25	34.9	34.9	34.9	74	27.5	0	0	---	0.01	29.992 
06:30	34.6	34.6	34.6	77	28.1	0	1	0	0.00	29.974 
06:35	34.4	34.4	34.4	78	28.3	0	0	---	0.01	29.980 
06:40	34.3	34.3	34.3	78	28.2	0	0	---	0.01	29.984 
06:45	34.1	34.1	34.1	81	28.9	0	0	---	0.01	29.989 
06:50	34.0	34.0	34.0	82	29.1	0	1	0	0.01	29.979 
06:55	33.7	33.7	33.7	83	29.1	0	1	0	0.01	29.976 
07:00	33.5	33.5	33.5	83	28.9	0	2	0	0.01	29.971 
07:05	33.4	33.4	33.4	83	28.8	0	2	135	0.01	29.971 
07:10	33.2	33.2	33.2	83	28.6	1	2	135	0.02	29.965 
07:15	33.1	33.1	33.1	83	28.5	1	2	112	0.02	29.968 
07:20	33.1	33.1	33.1	84	28.8	1	3	112	0.02	29.961 
07:25	32.9	32.9	32.9	84	28.6	1	3	135	0.01	29.961 
07:30	32.9	32.9	32.9	85	28.9	1	5	90	0.02	29.960 
07:35	32.9	32.9	32.9	85	28.9	2	6	112	0.01	29.950 
07:40	32.9	32.9	32.9	86	29.2	1	5	112	0.01	29.949 
07:45	32.9	32.9	32.9	86	29.2	1	2	112	0.01	29.949 
07:50	32.9	32.9	32.9	87	29.5	1	3	248	0.01	29.952 
07:55	32.9	32.9	32.9	87	29.5	0	2	270	0.01	29.956 
08:00	32.9	32.9	32.9	88	29.7	1	2	270	0.00	29.948 
08:05	32.9	32.9	32.9	88	29.7	1	3	135	0.00	29.946 
08:10	32.9	32.9	32.9	88	29.7	1	3	112	0.00	29.945 
08:15	33.1	33.1	33.1	88	29.9	0	2	292	0.00	29.945 
08:20	33.1	33.1	33.1	88	29.9	0	2	292	0.00	29.940 
08:25	33.1	33.1	33.1	88	29.9	0	2	292	0.00	29.938 
08:30	33.2	33.2	33.2	88	30.0	1	3	112	0.00	29.945 
08:35	33.2	33.2	33.2	89	30.3	1	3	112	0.00	29.945 
08:40	33.4	33.4	33.4	89	30.5	1	3	112	0.00	29.937 
08:45	33.4	33.4	33.4	89	30.5	1	3	112	0.00	29.940 
08:50	33.5	33.5	33.5	89	30.6	0	2	135	0.00	29.936 
08:55	33.5	33.5	33.5	89	30.6	0	2	135	0.00	29.938 
09:00	33.5	33.5	33.5	89	30.6	0	1	135	0.00	29.935 
09:05	33.7	33.7	33.7	90	31.1	0	1	135	0.00	29.938 
09:10	33.7	33.7	33.7	90	31.1	0	1	180	0.01	29.937 
09:15	33.8	33.8	33.8	90	31.2	0	2	180	0.00	29.934 
09:20	33.8	33.8	33.8	90	31.2	0	1	180	0.00	29.933 
09:25	34.0	34.0	34.0	90	31.4	0	1	180	0.00	29.933 
09:30	34.0	34.0	34.0	90	31.4	0	3	248	0.00	29.934 
09:35	34.1	34.1	34.1	90	31.5	0	1	248	0.00	29.931 
09:40	34.1	34.1	34.1	90	31.5	0	1	248	0.00	29.931 
09:45	34.1	34.1	34.1	91	31.8	0	2	248	0.00	29.931 
09:50	34.3	34.3	34.3	91	32.0	1	2	135	0.00	29.931 
09:55	34.4	34.4	34.4	91	32.0	0	2	112	0.00	29.929 
10:00	34.4	34.4	34.4	91	32.0	0	2	112	0.00	29.927 
10:05	34.6	34.6	34.6	91	32.2	0	2	248	0.00	29.929 
10:10	34.7	34.7	34.7	91	32.3	0	3	248	0.00	29.929 
10:15	34.7	34.7	34.7	91	32.3	1	2	0	0.00	29.929 
10:20	34.9	34.9	34.9	91	32.5	0	2	270	0.00	29.927 
10:25	34.9	34.9	34.9	92	32.8	1	3	270	0.00	29.928 
10:30	35.0	35.0	35.0	92	32.9	1	2	248	0.00	29.924 
10:35	35.0	35.0	35.0	92	32.9	0	3	225	0.00	29.927 
10:40	35.3	35.3	35.3	92	33.2	0	2	225	0.00	29.927 
10:45	35.5	35.5	35.5	92	33.4	0	2	225	0.00	29.926 
10:50	35.6	35.6	35.6	92	33.5	1	2	248	0.00	29.919 
10:55	35.9	35.9	35.9	92	33.8	1	5	248	0.00	29.916 
11:00	36.2	36.2	36.2	92	34.1	1	4	248	0.00	29.915 
11:05	36.5	36.5	36.5	92	34.4	1	3	248	0.00	29.913 
11:10	36.8	36.8	36.8	92	34.7	1	4	248	0.00	29.913 
11:15	37.2	37.2	37.2	92	35.1	2	4	248	0.00	29.913 
11:20	37.5	37.5	37.5	91	35.1	2	5	248	0.00	29.912 
11:25	37.9	37.9	37.9	91	35.5	2	6	248	0.00	29.911 
11:30	38.2	38.2	38.2	90	35.5	2	5	248	0.00	29.910 
11:35	38.5	38.5	38.5	90	35.8	1	3	248	0.00	29.908 
11:40	38.8	38.8	38.8	89	35.8	2	6	248	0.00	29.904 
11:45	39.2	39.2	39.2	89	36.2	3	10	248	0.00	29.902 
11:50	39.5	39.5	39.5	89	36.5	3	6	248	0.00	29.898 
11:55	40.1	40.1	40.1	88	36.8	3	7	248	0.01	29.897 
12:00	40.5	40.5	40.5	87	36.9	3	7	248	0.00	29.894 
12:05	41.2	41.2	41.2	87	37.6	2	6	248	0.00	29.893 
12:10	41.8	39.4	41.8	85	37.6	4	9	248	0.00	29.890 
12:15	41.9	39.5	41.9	85	37.7	4	10	270	0.00	29.891 
12:20	42.1	38.9	42.1	84	37.6	5	11	248	0.00	29.892 
12:25	41.9	39.5	41.9	83	37.1	4	9	248	0.00	29.895 
12:30	42.1	39.7	42.1	84	37.6	4	11	248	0.00	29.893 
12:35	42.2	42.2	42.2	84	37.7	3	7	248	0.00	29.890 
12:40	42.3	40.0	42.3	84	37.8	4	10	248	0.00	29.889 
12:45	42.6	40.3	42.6	84	38.1	4	13	248	0.00	29.889 
12:50	43.2	43.2	43.2	84	38.7	3	9	248	0.00	29.888 
12:55	43.5	41.4	43.5	83	38.7	4	9	248	0.00	29.883 
13:00	43.8	41.7	43.8	82	38.7	4	14	248	0.00	29.880 
13:05	43.8	41.7	43.8	82	38.7	4	14	248	0.00	29.884 
13:10	43.9	41.8	43.9	83	39.1	4	11	248	0.00	29.885 
13:15	44.2	44.2	44.2	82	39.1	3	7	248	0.00	29.882 
13:20	44.5	42.5	44.5	82	39.4	4	9	248	0.00	29.879 
13:25	44.8	44.8	44.8	82	39.6	2	6	225	0.00	29.884 
13:30	45.2	45.2	45.2	82	40.0	3	5	248	0.00	29.880 
13:35	45.2	42.6	45.2	81	39.7	5	12	248	0.00	29.877 
13:40	45.2	45.2	45.2	81	39.7	3	7	248	0.00	29.882 
13:45	45.4	43.6	45.4	81	39.9	4	9	248	0.00	29.881 
13:50	45.4	42.8	45.4	81	39.9	5	12	248	0.00	29.879 
13:55	45.7	45.7	45.7	82	40.5	3	7	248	0.00	29.880 
14:00	45.8	45.8	45.8	82	40.6	3	6	270	0.00	29.879 
14:05	46.0	44.2	46.0	81	40.5	4	10	248	0.00	29.877 
14:10	46.2	44.5	46.2	81	40.7	4	12	270	0.00	29.881 
14:15	46.4	46.4	46.4	81	40.9	3	10	248	0.00	29.881 
14:20	46.5	46.5	46.5	81	41.0	3	7	248	0.00	29.878 
14:25	46.8	46.8	46.8	80	41.0	3	9	248	0.00	29.876 
14:30	47.0	47.0	47.0	81	41.5	3	7	270	0.00	29.877 
14:35	47.1	47.1	47.1	80	41.3	3	9	270	0.00	29.876 
14:40	47.3	47.3	47.3	80	41.4	3	9	270	0.00	29.876 
14:45	47.3	45.0	47.3	80	41.4	5	11	270	0.00	29.876 
14:50	47.4	45.9	47.4	79	41.2	4	10	270	0.00	29.880 
14:55	47.4	45.2	47.4	79	41.2	5	11	248	0.00	29.881 
15:00	47.6	47.6	47.6	80	41.7	3	10	270	0.00	29.883 
15:05	47.7	47.7	47.7	80	41.8	3	9	270	0.00	29.881 
15:10	47.9	46.4	47.9	79	41.7	4	10	248	0.00	29.880 
15:15	48.0	46.6	48.0	79	41.8	4	11	248	0.00	29.881 
15:20	48.0	45.9	48.0	78	41.5	5	12	270	0.00	29.883 
15:25	48.0	48.0	48.0	78	41.5	3	7	248	0.00	29.884 
15:30	48.2	46.8	48.2	78	41.7	4	9	270	0.00	29.885 
15:35	48.2	46.8	48.2	78	41.7	4	12	270	0.00	29.886 
15:40	48.2	48.2	48.2	79	42.0	2	7	270	0.00	29.889 
15:45	48.3	48.3	48.3	79	42.1	2	5	248	0.00	29.891 
15:50	48.3	46.9	48.3	78	41.8	4	7	270	0.00	29.894 
15:55	48.3	48.3	48.3	79	42.1	3	7	270	0.00	29.896 
16:00	48.3	48.3	48.3	79	42.1	3	6	248	0.00	29.898 
16:05	48.3	46.9	48.3	78	41.8	4	11	248	0.00	29.899 
16:10	48.3	48.3	48.3	78	41.8	3	11	270	0.00	29.900 
16:15	48.5	47.1	48.5	78	42.0	4	10	270	0.00	29.902 
16:20	48.5	47.1	48.5	77	41.6	4	10	270	0.00	29.902 
16:25	48.6	46.6	48.6	77	41.7	5	12	270	0.00	29.903 
16:30	48.6	47.3	48.6	77	41.7	4	9	270	0.00	29.904 
16:35	48.8	48.8	48.8	77	41.9	3	7	270	0.00	29.909 
16:40	48.8	48.8	48.8	77	41.9	3	6	270	0.00	29.909 
16:45	48.8	48.8	48.8	77	41.9	3	6	248	0.00	29.913 
16:50	48.9	48.9	48.9	77	42.0	3	6	270	0.00	29.914 
16:55	48.9	47.6	48.9	77	42.0	4	6	270	0.00	29.916 
17:00	49.1	49.1	49.1	77	42.2	3	7	248	0.00	29.920 
17:05	49.1	47.8	49.1	77	42.2	4	8	270	0.00	29.921 
17:10	49.2	49.2	49.2	77	42.3	2	9	248	0.00	29.927 
17:15	49.4	49.4	49.4	78	42.8	2	7	248	0.00	29.929 
17:20	49.5	49.5	49.5	78	42.9	2	4	270	0.00	29.931 
17:25	49.5	49.5	49.5	78	42.9	3	7	248	0.00	29.935 
17:30	49.6	49.6	49.6	78	43.0	3	10	248	0.00	29.936 
17:35	49.6	49.6	49.6	78	43.0	3	7	248	0.00	29.935 
17:40	49.6	49.6	49.6	78	43.0	3	7	248	0.00	29.939 
17:45	49.6	49.6	49.6	78	43.0	3	10	248	0.00	29.943 
17:50	49.6	49.6	49.6	78	43.0	3	7	270	0.00	29.946 
17:55	49.8	49.8	49.8	78	43.2	3	7	248	0.00	29.946 
18:00	49.8	48.6	49.8	78	43.2	4	11	248	0.00	29.946 
18:05	49.8	49.8	49.8	78	43.2	3	6	248	0.00	29.947 
18:10	49.6	49.6	49.6	79	43.4	3	8	270	0.00	29.950 
18:15	49.6	49.6	49.6	79	43.4	3	9	248	0.00	29.952 
18:20	49.6	48.4	49.6	79	43.4	4	9	248	0.00	29.954 
18:25	49.5	49.5	49.5	80	43.6	3	9	248	0.00	29.959 
18:30	49.5	49.5	49.5	80	43.6	2	7	248	0.00	29.961 
18:35	49.4	49.4	49.4	81	43.8	3	6	248	0.00	29.965 
18:40	49.2	49.2	49.2	81	43.6	3	9	248	0.00	29.967 
18:45	49.1	49.1	49.1	82	43.8	3	9	248	0.00	29.972 
18:50	48.9	48.9	48.9	82	43.6	2	5	248	0.00	29.974 
18:55	48.9	48.9	48.9	82	43.6	2	5	248	0.00	29.976 
19:00	48.6	48.6	48.6	83	43.7	2	4	248	0.00	29.979 
19:05	48.6	48.6	48.6	83	43.7	2	5	248	0.00	29.980 
19:10	48.5	48.5	48.5	84	43.9	2	6	248	0.00	29.983 
19:15	48.5	48.5	48.5	84	43.9	2	5	248	0.00	29.988 
19:20	48.3	48.3	48.3	84	43.7	1	4	248	0.00	29.994 
19:25	48.2	48.2	48.2	84	43.6	2	6	248	0.00	29.996 
19:30	48.0	48.0	48.0	85	43.7	2	5	248	0.00	29.998 
19:35	47.9	47.9	47.9	85	43.6	2	4	248	0.00	29.999 
19:40	47.9	47.9	47.9	86	43.9	1	4	248	0.00	30.001 
19:45	47.7	47.7	47.7	86	43.7	1	3	248	0.00	30.001 
19:50	47.6	47.6	47.6	86	43.6	1	2	248	0.00	30.008 
19:55	47.6	47.6	47.6	86	43.6	1	4	225	0.00	30.012 
20:00	47.6	47.6	47.6	87	43.9	1	4	248	0.00	30.013 
20:05	47.6	47.6	47.6	87	43.9	2	4	248	0.00	30.011 
20:10	47.6	47.6	47.6	87	43.9	1	3	248	0.00	30.011 
20:15	47.6	47.6	47.6	87	43.9	2	4	248	0.00	30.014 
20:20	47.6	47.6	47.6	87	43.9	1	5	248	0.00	30.019 
20:25	47.6	47.6	47.6	87	43.9	1	3	248	0.00	30.022 
20:30	47.6	47.6	47.6	87	43.9	1	4	248	0.00	30.023 
20:35	47.6	47.6	47.6	88	44.2	1	6	248	0.00	30.025 
20:40	47.6	47.6	47.6	88	44.2	2	5	248	0.00	30.028 
20:45	47.6	47.6	47.6	88	44.2	1	4	248	0.00	30.031 
20:50	47.7	47.7	47.7	88	44.3	1	4	248	0.00	30.035 
20:55	47.7	47.7	47.7	88	44.3	0	3	248	0.00	30.041 
21:00	47.6	47.6	47.6	88	44.2	0	1	248	0.00	30.042 
21:05	47.4	47.4	47.4	88	44.0	0	1	248	0.00	30.047 
21:10	47.0	47.0	47.0	88	43.6	0	1	248	0.00	30.054 
21:15	46.8	46.8	46.8	88	43.4	0	1	248	0.00	30.059 
21:20	46.5	46.5	46.5	89	43.4	0	0	---	0.00	30.061 
21:25	46.4	46.4	46.4	89	43.3	0	0	---	0.00	30.065 
21:30	46.1	46.1	46.1	89	43.0	0	0	---	0.00	30.072 
21:35	45.8	45.8	45.8	90	43.0	0	1	248	0.00	30.077 
21:40	45.7	45.7	45.7	90	42.9	0	1	248	0.00	30.078 
21:45	45.5	45.5	45.5	91	43.0	0	1	248	0.00	30.080 
21:50	45.4	45.4	45.4	91	42.9	0	1	248	0.00	30.085 
21:55	45.1	45.1	45.1	91	42.6	0	0	---	0.00	30.090 
22:00	44.8	44.8	44.8	91	42.3	0	0	---	0.00	30.092 
22:05	44.5	44.5	44.5	92	42.3	0	0	---	0.00	30.092 
22:10	44.3	44.3	44.3	92	42.1	0	0	---	0.00	30.093 
22:15	44.1	44.1	44.1	92	41.9	0	1	248	0.00	30.093 
22:20	43.8	43.8	43.8	92	41.6	0	0	---	0.00	30.097 
22:25	43.5	43.5	43.5	92	41.3	0	0	---	0.00	30.101 
22:30	43.2	43.2	43.2	92	41.0	0	0	---	0.00	30.106 
22:35	42.9	42.9	42.9	93	41.0	0	0	---	0.00	30.109 
22:40	42.8	42.8	42.8	93	40.9	0	1	248	0.00	30.110 
22:45	43.1	43.1	43.1	94	41.5	0	0	---	0.00	30.111 
22:50	43.1	43.1	43.1	94	41.5	0	0	---	0.00	30.113 
22:55	42.9	42.9	42.9	94	41.3	0	0	---	0.00	30.118 
23:00	42.6	42.6	42.6	94	41.0	0	0	---	0.00	30.122 
23:05	42.6	42.6	42.6	94	41.0	0	0	---	0.00	30.120 
23:10	42.6	42.6	42.6	95	41.3	0	1	248	0.00	30.126 
23:15	42.9	42.9	42.9	95	41.6	1	4	338	0.00	30.134 
23:20	42.8	42.8	42.8	93	40.9	0	3	270	0.00	30.136 
23:25	42.9	42.9	42.9	88	39.6	0	2	315	0.00	30.139 
23:30	42.9	42.9	42.9	83	38.1	1	2	0	0.00	30.145 
23:35	43.2	43.2	43.2	78	36.8	0	2	0	0.00	30.148 
23:40	43.2	43.2	43.2	76	36.2	0	2	0	0.00	30.151 
23:45	43.2	43.2	43.2	74	35.5	0	1	338	0.00	30.153 
23:50	43.1	43.1	43.1	74	35.4	0	1	338	0.00	30.155 
23:55	42.8	42.8	42.8	74	35.1	0	2	338	0.00	30.159 

CoCoRaHS
IN-AL-39
A2 Web Hosting
Creative Commons License
GoDaddy
Look for:

loaded 2017-12-11 12:30:30 • last modified 2010-11-18 10:43:29
Privacy PolicyDisclaimer
• wx.awcolley.com is powered by PmWiki v.2002016 •
• all content (unless otherwise noted) © 2017 A W Colley